createdAt,value
2023-03-05T00:04:27.114Z,20.50
2023-03-05T00:09:39.929Z,23.13
2023-03-05T00:14:52.815Z,22.30
2023-03-05T00:20:07.729Z,23.80
2023-03-05T00:25:20.703Z,23.90
2023-03-05T00:30:33.646Z,23.37
2023-03-05T00:35:48.033Z,24.30
2023-03-05T00:41:00.931Z,23.33
2023-03-05T00:46:13.886Z,24.60
2023-03-05T00:51:28.378Z,23.43
2023-03-05T00:56:41.286Z,23.17
2023-03-05T01:01:54.283Z,24.50
2023-03-05T01:07:08.537Z,24.20
2023-03-05T01:12:21.412Z,21.70
2023-03-05T01:17:34.522Z,22.10
2023-03-05T01:22:48.787Z,21.50
2023-03-05T01:28:01.665Z,20.87
2023-03-05T01:33:14.572Z,21.20
2023-03-05T01:38:29.133Z,21.50
2023-03-05T01:43:42.567Z,21.00
2023-03-05T01:48:57.300Z,21.90
2023-03-05T01:54:12.741Z,20.00
2023-03-05T01:59:26.328Z,20.70
2023-03-05T02:04:42.034Z,20.83
2023-03-05T02:09:56.256Z,20.37
2023-03-05T02:15:09.713Z,21.00
2023-03-05T02:20:23.398Z,19.27
2023-03-05T02:25:37.646Z,18.53
2023-03-05T02:30:50.800Z,21.03
2023-03-05T02:36:03.760Z,21.93
2023-03-05T02:41:18.529Z,21.73
2023-03-05T02:46:32.306Z,25.17
2023-03-05T02:51:45.324Z,23.37
2023-03-05T02:56:59.734Z,19.73
2023-03-05T03:02:13.367Z,25.93
2023-03-05T03:07:26.221Z,24.27
2023-03-05T03:12:41.052Z,23.13
2023-03-05T03:17:54.980Z,19.93
2023-03-05T03:23:08.376Z,18.60
2023-03-05T03:28:22.578Z,19.90
2023-03-05T03:33:35.447Z,18.90
2023-03-05T03:38:48.278Z,18.60
2023-03-05T03:44:03.222Z,19.60
2023-03-05T03:49:16.882Z,21.70
2023-03-05T03:54:29.801Z,22.73
2023-03-05T03:59:45.434Z,23.87
2023-03-05T04:04:58.306Z,25.73
2023-03-05T04:10:12.255Z,26.43
2023-03-05T04:15:26.425Z,25.30
2023-03-05T04:20:39.252Z,26.83
2023-03-05T04:25:52.129Z,27.63
2023-03-05T04:31:06.575Z,27.27
2023-03-05T04:36:19.419Z,26.20
2023-03-05T04:41:32.261Z,25.50
2023-03-05T04:46:46.703Z,26.23
2023-03-05T04:51:59.566Z,25.60
2023-03-05T04:57:12.424Z,26.40
2023-03-05T05:02:26.678Z,23.87
2023-03-05T05:07:39.568Z,25.10
2023-03-05T05:12:52.398Z,23.30
2023-03-05T05:18:06.622Z,24.53
2023-03-05T05:23:19.462Z,23.53
2023-03-05T05:28:32.314Z,25.13
2023-03-05T05:33:49.579Z,25.13
2023-03-05T05:39:02.701Z,24.87
2023-03-05T05:44:15.534Z,24.93
2023-03-05T05:49:29.704Z,25.33
2023-03-05T05:54:42.565Z,26.33
2023-03-05T05:59:55.383Z,25.10
2023-03-05T06:05:10.522Z,26.87
2023-03-05T06:10:23.358Z,24.73
2023-03-05T06:15:36.213Z,27.33
2023-03-05T06:20:56.010Z,29.00
2023-03-05T06:26:09.287Z,27.80
2023-03-05T06:31:23.004Z,27.37
2023-03-05T06:36:37.196Z,28.23
2023-03-05T06:41:51.757Z,29.40
2023-03-05T06:47:05.913Z,28.37
2023-03-05T06:52:20.110Z,28.67
2023-03-05T06:57:32.946Z,28.30
2023-03-05T07:02:45.794Z,27.30
2023-03-05T07:07:59.992Z,29.07
2023-03-05T07:13:12.871Z,26.80
2023-03-05T07:18:25.731Z,28.00
2023-03-05T07:23:39.931Z,33.20
2023-03-05T07:28:53.066Z,28.47
2023-03-05T07:34:06.554Z,27.90
2023-03-05T07:39:20.784Z,29.23
2023-03-05T07:44:33.600Z,28.77
2023-03-05T07:49:46.431Z,27.20
2023-03-05T07:55:00.648Z,25.17
2023-03-05T08:00:14.049Z,25.73
2023-03-05T08:05:28.227Z,25.73
2023-03-05T08:10:42.443Z,25.20
2023-03-05T08:15:55.323Z,27.93
2023-03-05T08:21:08.204Z,29.83
2023-03-05T08:26:23.344Z,28.50
2023-03-05T08:31:36.580Z,27.20
2023-03-05T08:36:50.191Z,27.27
2023-03-05T08:42:04.503Z,27.67
2023-03-05T08:47:18.194Z,25.43
2023-03-05T08:52:31.018Z,33.50
2023-03-05T08:57:45.175Z,29.20
2023-03-05T09:02:58.194Z,29.03
2023-03-05T09:08:11.166Z,28.90
2023-03-05T09:13:25.365Z,26.43
2023-03-05T09:18:40.109Z,25.60
2023-03-05T09:23:53.018Z,25.50
2023-03-05T09:29:08.524Z,24.87
2023-03-05T09:34:21.464Z,27.27
2023-03-05T09:39:34.317Z,27.80
2023-03-05T09:44:52.814Z,25.80
2023-03-05T09:50:10.522Z,25.70
2023-03-05T09:55:26.386Z,26.17
2023-03-05T10:00:42.515Z,24.10
2023-03-05T10:05:59.309Z,23.40
2023-03-05T10:11:17.255Z,22.80
2023-03-05T10:16:43.785Z,22.17
2023-03-05T10:22:01.362Z,23.23
2023-03-05T10:26:58.721Z,25.63
2023-03-05T10:31:56.595Z,23.73
2023-03-05T10:36:58.088Z,22.60
2023-03-05T10:42:02.326Z,24.20
2023-03-05T10:46:57.734Z,25.13
2023-03-05T10:51:53.412Z,24.07
2023-03-05T10:56:45.970Z,33.90
2023-03-05T11:01:38.597Z,21.37
2023-03-05T11:06:37.796Z,18.97
2023-03-05T11:11:31.303Z,21.27
2023-03-05T11:16:25.008Z,22.70
2023-03-05T11:21:23.912Z,22.40
2023-03-05T11:26:20.528Z,21.40
2023-03-05T11:31:21.682Z,21.37
2023-03-05T11:36:24.428Z,19.70
2023-03-05T11:41:17.677Z,19.87
2023-03-05T11:46:19.828Z,22.13
2023-03-05T11:51:17.394Z,21.30
2023-03-05T11:56:17.422Z,21.07
2023-03-05T12:01:15.312Z,21.87
2023-03-05T12:06:15.050Z,20.47
2023-03-05T12:11:10.474Z,20.63
2023-03-05T12:16:06.727Z,20.20
2023-03-05T12:21:03.715Z,19.20
2023-03-05T12:25:59.337Z,20.90
2023-03-05T12:30:57.429Z,20.53
2023-03-05T12:35:50.136Z,19.77
2023-03-05T12:40:42.992Z,19.63
2023-03-05T12:45:39.297Z,19.47
2023-03-05T12:50:52.648Z,18.30
2023-03-05T12:55:50.816Z,20.67
2023-03-05T13:00:45.918Z,21.43
2023-03-05T13:05:39.714Z,28.50
2023-03-05T13:10:32.344Z,18.47
2023-03-05T13:15:25.940Z,19.30
2023-03-05T13:20:27.896Z,19.13
2023-03-05T13:25:20.972Z,19.37
2023-03-05T13:30:24.641Z,17.97
2023-03-05T13:35:17.347Z,19.07
2023-03-05T13:40:19.485Z,19.00
2023-03-05T13:45:21.932Z,19.33
2023-03-05T13:50:23.515Z,17.97
2023-03-05T13:55:19.272Z,17.80
2023-03-05T14:00:26.351Z,17.83
2023-03-05T14:05:19.805Z,18.77
2023-03-05T14:10:28.574Z,18.80
2023-03-05T14:15:22.391Z,18.10
2023-03-05T14:20:21.516Z,17.77
2023-03-05T14:25:27.668Z,17.23
2023-03-05T14:30:21.455Z,18.10
2023-03-05T14:35:18.836Z,20.10
2023-03-05T14:40:19.751Z,19.63
2023-03-05T14:45:15.683Z,19.90
2023-03-05T14:50:08.846Z,18.83
2023-03-05T14:55:01.620Z,19.73
2023-03-05T14:59:55.573Z,21.20
2023-03-05T15:04:49.566Z,19.83
2023-03-05T15:09:42.216Z,20.87
2023-03-05T15:14:34.847Z,19.50
2023-03-05T15:19:27.414Z,20.83
2023-03-05T15:24:21.353Z,19.63
2023-03-05T15:29:13.980Z,20.07
2023-03-05T15:34:06.556Z,18.67
2023-03-05T15:38:59.216Z,18.77
2023-03-05T15:43:53.359Z,19.13
2023-03-05T15:48:49.910Z,18.70
2023-03-05T15:53:42.605Z,18.20
2023-03-05T15:58:35.279Z,19.27
2023-03-05T16:03:29.288Z,18.13
2023-03-05T16:08:21.965Z,18.83
2023-03-05T16:13:15.949Z,18.47
2023-03-05T16:18:11.414Z,18.10
2023-03-05T16:23:05.993Z,17.90
2023-03-05T16:27:58.689Z,19.63
2023-03-05T16:32:53.626Z,18.90
2023-03-05T16:37:46.460Z,19.33
2023-03-05T16:42:40.461Z,18.07
2023-03-05T16:47:33.068Z,18.80
2023-03-05T16:52:25.636Z,19.50
2023-03-05T16:57:18.253Z,19.40
2023-03-05T17:02:13.218Z,19.50
2023-03-05T17:07:05.928Z,19.90
2023-03-05T17:11:58.551Z,19.77
2023-03-05T17:16:51.217Z,20.00
2023-03-05T17:21:45.316Z,21.10
2023-03-05T17:26:38.116Z,19.20
2023-03-05T17:31:30.696Z,19.57
2023-03-05T17:36:23.642Z,18.23
2023-03-05T17:41:18.132Z,20.37
2023-03-05T17:46:10.766Z,19.43
2023-03-05T17:51:03.540Z,19.40
2023-03-05T17:55:56.208Z,18.17
2023-03-05T18:00:50.215Z,19.53
2023-03-05T18:05:42.844Z,20.13
2023-03-05T18:10:35.706Z,19.73
2023-03-05T18:15:28.969Z,25.73
2023-03-05T18:20:26.316Z,20.13
2023-03-05T18:25:18.904Z,22.33
2023-03-05T18:30:12.269Z,19.47
2023-03-05T18:35:05.093Z,20.37
2023-03-05T18:39:59.126Z,20.20
2023-03-05T18:44:51.783Z,38.80
2023-03-05T18:49:44.442Z,21.73
2023-03-05T18:54:37.112Z,34.63
2023-03-05T18:59:31.819Z,29.00
2023-03-05T19:04:24.450Z,45.77
2023-03-05T19:09:28.790Z,31.50
2023-03-05T19:14:21.402Z,21.80
2023-03-05T19:19:16.567Z,20.80
2023-03-05T19:24:09.439Z,22.40
2023-03-05T19:29:03.705Z,22.20
2023-03-05T19:33:56.465Z,20.60
2023-03-05T19:38:50.368Z,20.30
2023-03-05T19:43:43.231Z,21.03
2023-03-05T19:48:36.446Z,21.60
2023-03-05T19:53:29.059Z,20.77
2023-03-05T19:58:22.933Z,21.53
2023-03-05T20:03:15.476Z,20.20
2023-03-05T20:08:08.048Z,20.27
2023-03-05T20:13:00.619Z,20.03
2023-03-05T20:17:54.665Z,22.00
2023-03-05T20:22:47.737Z,19.80
2023-03-05T20:27:40.747Z,20.00
2023-03-05T20:32:33.495Z,20.20
2023-03-05T20:37:36.016Z,19.03
2023-03-05T20:42:28.826Z,19.23
2023-03-05T20:47:32.278Z,19.37
2023-03-05T20:52:25.063Z,20.07
2023-03-05T20:57:19.144Z,20.50
2023-03-05T21:02:12.030Z,18.97
2023-03-05T21:07:05.058Z,21.10
2023-03-05T21:11:57.649Z,20.63
2023-03-05T21:16:51.588Z,20.03
2023-03-05T21:21:45.755Z,32.20
2023-03-05T21:26:38.786Z,21.77
2023-03-05T21:31:31.537Z,20.80
2023-03-05T21:36:25.597Z,18.90
2023-03-05T21:41:20.512Z,18.93
2023-03-05T21:46:13.246Z,19.13
2023-03-05T21:51:07.837Z,18.10
2023-03-05T21:56:10.933Z,18.33
2023-03-05T22:01:03.775Z,18.23
2023-03-05T22:05:56.650Z,17.73
2023-03-05T22:10:49.495Z,18.20
2023-03-05T22:15:44.502Z,18.00
2023-03-05T22:20:37.220Z,19.77
2023-03-05T22:25:30.123Z,17.90
2023-03-05T22:30:23.140Z,18.10
2023-03-05T22:35:17.811Z,18.57
2023-03-05T22:40:14.727Z,17.70
2023-03-05T22:45:08.098Z,17.63
2023-03-05T22:50:01.101Z,16.63
2023-03-05T22:54:56.101Z,16.77
2023-03-05T22:59:49.781Z,17.30
2023-03-05T23:04:49.501Z,17.77
2023-03-05T23:09:42.244Z,18.20
2023-03-05T23:14:36.304Z,18.13
2023-03-05T23:19:28.959Z,18.20
2023-03-05T23:24:21.621Z,17.70
2023-03-05T23:29:14.264Z,19.17
2023-03-05T23:34:08.277Z,20.07
2023-03-05T23:39:00.898Z,19.47
2023-03-05T23:43:53.475Z,20.53
2023-03-05T23:48:46.263Z,23.00
2023-03-05T23:53:40.367Z,20.30
2023-03-05T23:58:33.133Z,18.80
